Time;durP1;ratioP1;P1;durP2;ratioP2;P2;SDS_P1;SDS_P2;PMS_P1;PMS_P2;Temp;Humidity;BMP_temperature;BMP_pressure;BME280_temperature;BME280_humidity;BME280_pressure;Samples;Min_cycle;Max_cycle;Signal;HPM_P1;HPM_P2
2023/10/13 00:02:04;;;;;;;5.85;2.45;;;;;;;8.87;89.66;97974.19;4938668;28;20049;-73
2023/10/13 00:04:38;;;;;;;2.75;1.85;;;;;;;8.84;89.25;97974.44;4936836;28;20050;-69
2023/10/13 00:07:04;;;;;;;3.95;1.60;;;;;;;8.75;89.74;97969.97;4920591;28;20051;-69
2023/10/13 00:09:33;;;;;;;2.97;1.50;;;;;;;8.71;89.99;97987.16;4916705;29;20058;-68
2023/10/13 00:12:03;;;;;;;6.70;1.95;;;;;;;8.74;89.95;97984.22;4938099;28;20035;-67
2023/10/13 00:14:34;;;;;;;3.72;1.42;;;;;;;8.74;90.09;97990.38;4914665;29;20506;-66
2023/10/13 00:17:04;;;;;;;2.35;1.17;;;;;;;8.71;90.20;97997.78;4908416;28;20051;-67
2023/10/13 00:19:45;;;;;;;5.82;1.83;;;;;;;8.71;90.00;97987.16;4928377;28;20038;-66
2023/10/13 00:22:15;;;;;;;5.15;2.13;;;;;;;8.67;89.65;97994.59;4933766;28;20050;-68
2023/10/13 00:24:50;;;;;;;4.00;1.77;;;;;;;8.63;89.51;97995.00;4938385;28;20163;-65
2023/10/13 00:27:29;;;;;;;5.05;2.00;;;;;;;8.63;89.85;97997.66;4936048;28;20055;-75
2023/10/13 00:32:53;;;;;;;6.28;2.47;;;;;;;8.57;89.75;98004.34;4935249;28;20050;-71
2023/10/13 00:35:37;;;;;;;3.72;2.33;;;;;;;8.58;90.17;98011.31;4944410;28;20054;-71
2023/10/13 00:38:04;;;;;;;5.87;2.97;;;;;;;8.52;89.92;97995.94;4913586;28;20039;-73
2023/10/13 00:43:29;;;;;;;4.55;2.05;;;;;;;8.48;89.98;98009.63;4932797;28;20399;-72
2023/10/13 00:48:38;;;;;;;2.95;1.92;;;;;;;8.57;90.29;98004.34;4951240;28;20047;-74
2023/10/13 00:51:07;;;;;;;;;;;;;;;8.67;90.04;98015.00;4940320;28;20057;-71
2023/10/13 00:53:34;;;;;;;9.15;2.33;;;;;;;8.64;89.21;98008.13;4931473;28;20308;-72
2023/10/13 00:58:47;;;;;;;3.72;1.70;;;;;;;8.78;88.27;98001.59;4929082;28;20659;-69
2023/10/13 01:01:21;;;;;;;4.35;1.98;;;;;;;8.84;87.73;98005.50;4948844;28;20050;-69
2023/10/13 01:03:55;;;;;;;5.45;1.80;;;;;;;8.93;87.76;98005.50;4931313;28;20393;-75
2023/10/13 01:06:25;;;;;;;4.53;2.22;;;;;;;8.96;87.09;98005.22;4933347;28;20039;-77
2023/10/13 01:08:59;;;;;;;4.82;1.80;;;;;;;9.00;86.50;98016.44;4933021;28;20046;-73
2023/10/13 01:11:26;;;;;;;6.30;2.10;;;;;;;9.02;86.63;98020.63;4921179;28;20051;-73
2023/10/13 01:13:53;;;;;;;2.00;1.38;;;;;;;9.06;86.03;98043.28;4918744;28;20517;-74
2023/10/13 01:16:23;;;;;;;7.55;2.17;;;;;;;9.10;85.89;98017.25;4933909;28;20497;-74
2023/10/13 01:18:49;;;;;;;4.53;2.00;;;;;;;9.08;85.69;98009.44;4931810;28;20070;-73
2023/10/13 01:21:19;;;;;;;10.80;4.05;;;;;;;9.08;85.32;98013.91;4905614;28;20039;-72
2023/10/13 01:23:46;;;;;;;11.38;2.47;;;;;;;9.18;85.28;98013.91;4932159;28;20046;-72
2023/10/13 01:26:13;;;;;;;6.75;2.40;;;;;;;9.21;84.76;98035.72;4950643;28;20046;-72
2023/10/13 01:28:46;;;;;;;9.10;3.05;;;;;;;9.26;84.20;98017.53;4935452;28;20042;-72
2023/10/13 01:31:24;;;;;;;8.52;2.47;;;;;;;9.26;84.33;98011.38;4936998;28;20046;-72
2023/10/13 01:33:53;;;;;;;4.90;2.20;;;;;;;9.28;84.06;98030.69;4936185;28;20057;-73
2023/10/13 01:36:19;;;;;;;6.53;2.03;;;;;;;9.29;84.31;98016.41;4934892;28;20043;-72
2023/10/13 01:38:46;;;;;;;4.18;2.15;;;;;;;9.30;84.00;98045.53;4937747;28;20054;-75
2023/10/13 01:41:12;;;;;;;6.88;2.63;;;;;;;9.33;84.17;98028.44;4916868;28;20043;-73
2023/10/13 01:43:38;;;;;;;6.35;1.58;;;;;;;9.32;83.76;98024.13;4923058;28;20062;-73
2023/10/13 01:46:04;;;;;;;7.47;2.30;;;;;;;9.21;83.49;97997.66;4910717;28;20054;-76
2023/10/13 01:48:32;;;;;;;7.80;2.55;;;;;;;9.20;83.74;98054.47;4930994;28;20055;-71
2023/10/13 01:50:59;;;;;;;7.82;1.98;;;;;;;9.24;84.39;98034.63;4932634;28;20524;-70
2023/10/13 01:53:28;;;;;;;4.90;2.13;;;;;;;9.27;84.15;98034.31;4933196;28;20050;-71
2023/10/13 01:55:56;;;;;;;3.08;2.78;;;;;;;9.28;84.67;98036.84;4931035;28;20054;-71
2023/10/13 01:58:22;;;;;;;6.80;2.92;;;;;;;9.31;84.25;98041.03;4903290;28;20070;-70
2023/10/13 02:00:49;;;;;;;5.43;2.17;;;;;;;9.33;84.42;98156.09;4934348;28;20061;-69
2023/10/13 02:03:16;;;;;;;9.90;2.33;;;;;;;9.22;83.95;98069.31;4937455;28;20050;-73
2023/10/13 02:05:52;;;;;;;6.93;2.40;;;;;;;9.29;84.64;98040.34;4937383;28;20054;-68
2023/10/13 02:08:25;;;;;;;7.30;2.65;;;;;;;9.17;84.01;98060.91;4937115;28;20042;-69
2023/10/13 02:10:53;;;;;;;3.90;1.92;;;;;;;9.08;84.47;98045.81;4937677;28;20038;-72
2023/10/13 02:13:22;;;;;;;10.18;1.95;;;;;;;9.03;84.93;98051.53;4934826;28;20038;-72
2023/10/13 02:15:56;;;;;;;7.85;2.47;;;;;;;8.98;85.04;98048.47;4929166;28;20478;-70
2023/10/13 02:18:26;;;;;;;5.28;2.92;;;;;;;9.02;85.19;98014.47;4919434;29;20051;-72
2023/10/13 02:21:04;;;;;;;6.05;2.08;;;;;;;8.99;85.19;98057.28;4903466;29;20387;-71
2023/10/13 02:23:29;;;;;;;7.70;2.47;;;;;;;8.97;85.62;98048.59;4934996;28;20054;-69
2023/10/13 02:26:11;;;;;;;5.60;2.38;;;;;;;8.99;85.34;98063.44;4918619;29;20053;-68
2023/10/13 02:28:38;;;;;;;7.13;2.55;;;;;;;9.06;85.31;98047.75;4918688;29;20050;-70
2023/10/13 02:31:04;;;;;;;4.93;2.60;;;;;;;9.12;84.56;98060.50;4934182;28;20430;-70
2023/10/13 02:33:30;;;;;;;5.03;2.22;;;;;;;9.16;84.52;98029.16;4911158;29;20058;-65
2023/10/13 02:36:03;;;;;;;6.68;3.53;;;;;;;9.20;84.18;98065.13;4919586;28;20043;-64
2023/10/13 02:38:45;;;;;;;6.07;2.30;;;;;;;9.15;84.10;98067.34;4938750;28;20054;-74
2023/10/13 02:41:15;;;;;;;7.38;2.17;;;;;;;9.10;83.49;98079.25;4937936;28;20419;-73
2023/10/13 02:43:43;;;;;;;10.57;3.08;;;;;;;9.06;83.70;98072.53;4939186;28;20057;-71
2023/10/13 02:46:09;;;;;;;11.52;2.03;;;;;;;9.00;83.81;98077.56;4937671;28;20054;-74
2023/10/13 02:48:40;;;;;;;6.80;2.33;;;;;;;8.98;83.99;98082.16;4938034;28;20046;-71
2023/10/13 02:51:15;;;;;;;7.28;2.13;;;;;;;8.97;84.35;98080.47;4938951;28;20525;-72
2023/10/13 02:53:44;;;;;;;6.75;1.88;;;;;;;8.93;84.13;98087.88;4932630;28;20043;-67
2023/10/13 02:56:13;;;;;;;5.32;2.25;;;;;;;8.93;84.63;98082.56;4937382;28;20050;-67
2023/10/13 02:58:38;;;;;;;5.80;2.08;;;;;;;8.90;84.34;98093.50;4933747;28;20506;-67
2023/10/13 03:01:18;;;;;;;3.75;1.75;;;;;;;8.86;84.44;98096.53;4918901;29;20046;-68
2023/10/13 03:03:50;;;;;;;4.38;2.42;;;;;;;8.71;84.23;98107.56;4918844;29;20070;-67
2023/10/13 03:06:16;;;;;;;8.02;2.53;;;;;;;8.68;85.03;98114.97;4917793;29;20069;-68
2023/10/13 03:08:43;;;;;;;6.30;2.42;;;;;;;8.69;85.27;98114.00;4929015;28;20057;-68
2023/10/13 03:11:09;;;;;;;8.13;2.70;;;;;;;8.69;85.67;98109.50;4921594;28;20253;-67
2023/10/13 03:13:35;;;;;;;6.18;2.25;;;;;;;8.79;85.77;98120.19;4938045;28;20038;-69
2023/10/13 03:16:00;;;;;;;4.43;2.13;;;;;;;8.87;85.48;98116.84;4953102;28;20405;-71
2023/10/13 03:18:26;;;;;;;5.90;2.90;;;;;;;8.93;84.95;98117.13;4932337;28;20501;-73
2023/10/13 03:20:56;;;;;;;5.60;2.55;;;;;;;8.97;84.49;98154.91;4932368;28;20049;-72
2023/10/13 03:23:24;;;;;;;7.85;2.10;;;;;;;9.03;84.00;98114.47;4903099;28;20047;-74
2023/10/13 03:25:49;;;;;;;5.20;2.65;;;;;;;9.04;83.82;98124.97;4935320;28;20409;-72
2023/10/13 03:28:20;;;;;;;8.45;2.53;;;;;;;9.01;83.37;98109.31;4913539;28;20047;-72
2023/10/13 03:30:46;;;;;;;7.00;2.20;;;;;;;8.94;82.22;98112.63;4922339;28;20058;-74
2023/10/13 03:33:14;;;;;;;6.70;3.47;;;;;;;8.84;83.10;98117.94;4935733;28;20054;-72
2023/10/13 03:35:52;;;;;;;5.40;2.30;;;;;;;8.69;83.04;98130.75;4938303;28;20046;-72
2023/10/13 03:38:18;;;;;;;6.72;2.20;;;;;;;8.63;83.45;98122.50;4954332;28;20101;-72
2023/10/13 03:41:07;;;;;;;7.82;2.03;;;;;;;8.58;84.25;98138.81;4939826;28;20516;-72
2023/10/13 03:43:44;;;;;;;10.43;3.10;;;;;;;8.55;84.19;98128.47;4938497;28;20362;-72
2023/10/13 03:46:10;;;;;;;8.27;3.47;;;;;;;8.54;84.26;98124.16;4939037;28;20061;-73
2023/10/13 03:51:20;;;;;;;5.60;2.13;;;;;;;8.58;84.40;98140.63;4937909;28;20058;-72
2023/10/13 03:53:54;;;;;;;10.57;2.42;;;;;;;8.57;84.44;98141.63;4937860;28;20046;-75
2023/10/13 03:56:26;;;;;;;7.55;2.67;;;;;;;8.57;84.00;98146.94;4938767;28;20627;-74
2023/10/13 03:59:04;;;;;;;8.40;2.92;;;;;;;8.45;83.69;98154.16;4938662;28;20045;-73
2023/10/13 04:01:43;;;;;;;8.68;2.25;;;;;;;8.55;83.83;98163.00;4937845;28;20050;-73
2023/10/13 04:04:14;;;;;;;5.18;2.20;;;;;;;8.51;83.72;98158.09;4939679;28;20054;-74
2023/10/13 04:17:26;;;;;;;19.60;3.58;;;;;;;8.41;83.54;98195.22;4918768;29;20063;-73
2023/10/13 04:25:35;;;;;;;;;;;;;;;8.52;84.38;98218.22;4928489;28;20046;-72
2023/10/13 04:33:36;;;;;;;5.97;2.83;;;;;;;8.92;82.97;98211.09;4880359;29;20066;-75
2023/10/13 04:41:24;;;;;;;6.78;2.60;;;;;;;9.56;79.72;98258.63;4859218;29;20044;-73
2023/10/13 04:43:56;;;;;;;3.22;1.95;;;;;;;9.64;78.20;98240.16;4858706;29;20049;-72
2023/10/13 04:49:29;;;;;;;7.78;2.95;;;;;;;9.67;76.41;98249.69;4841425;29;20759;-73
2023/10/13 04:57:32;;;;;;;7.22;2.75;;;;;;;9.69;77.16;98269.84;4807349;29;20070;-74
2023/10/13 05:02:43;;;;;;;8.40;2.30;;;;;;;9.74;76.43;98283.56;4826250;29;20053;-76
2023/10/13 06:29:22;;;;;;;4.40;1.70;;;;;;;11.39;66.33;98417.63;4945577;28;20034;-72
2023/10/13 06:31:48;;;;;;;5.97;2.63;;;;;;;11.49;66.18;98387.25;4932736;28;20061;-73
2023/10/13 06:34:15;;;;;;;7.43;2.63;;;;;;;11.64;65.06;98383.09;4958752;28;20039;-74
2023/10/13 06:36:41;;;;;;;5.18;2.25;;;;;;;11.99;64.25;98406.44;4949181;28;20051;-72
2023/10/13 06:39:50;;;;;;;10.20;3.97;;;;;;;12.49;63.61;98395.31;4949454;28;20035;-73
2023/10/13 06:41:55;;;;;;;13.27;3.95;;;;;;;12.95;61.06;98398.75;4945241;28;20075;-73
2023/10/13 06:44:24;;;;;;;9.80;3.55;;;;;;;13.13;59.91;98412.91;4939354;28;20038;-74
2023/10/13 06:46:49;;;;;;;6.20;2.65;;;;;;;12.98;58.17;98414.50;4937577;28;20512;-72
2023/10/13 06:49:15;;;;;;;2.88;1.90;;;;;;;12.74;59.25;98412.44;4939110;28;20528;-75
2023/10/13 06:51:40;;;;;;;5.18;2.80;;;;;;;12.46;59.66;98414.31;4921968;28;20062;-73
2023/10/13 06:54:21;;;;;;;9.95;2.92;;;;;;;12.37;60.71;98431.28;4937065;28;20050;-74
2023/10/13 06:56:52;;;;;;;4.85;2.05;;;;;;;12.68;60.99;98435.25;4938563;28;20062;-73
2023/10/13 06:59:17;;;;;;;5.72;1.80;;;;;;;13.03;59.95;98433.56;4953701;28;20049;-75
2023/10/13 07:01:44;;;;;;;4.53;1.80;;;;;;;13.23;58.29;98423.56;4921419;28;20058;-74
2023/10/13 07:04:16;;;;;;;3.95;1.92;;;;;;;13.32;58.74;98454.72;4938193;28;20556;-72
2023/10/13 07:06:48;;;;;;;6.05;2.60;;;;;;;13.41;57.53;98432.41;4937507;28;20501;-70
2023/10/13 07:12:01;;;;;;;3.13;1.23;;;;;;;13.92;56.02;98441.38;4937345;28;20051;-70
2023/10/13 07:14:26;;;;;;;4.43;1.63;;;;;;;14.21;56.80;98451.75;4937502;28;20042;-70
2023/10/13 07:17:02;;;;;;;8.38;3.33;;;;;;;14.89;53.98;98479.31;4920126;28;20066;-71
2023/10/13 07:19:28;;;;;;;5.30;1.80;;;;;;;15.24;52.91;98488.88;4937360;28;20515;-71
2023/10/13 07:22:19;;;;;;;3.63;1.80;;;;;;;15.29;52.74;98470.44;4937561;28;20050;-70
2023/10/13 07:24:48;;;;;;;6.00;3.05;;;;;;;14.92;52.21;98483.47;4935427;28;20838;-69
2023/10/13 07:27:22;;;;;;;6.13;2.25;;;;;;;14.51;53.48;98475.34;4936375;28;20049;-71
2023/10/13 07:29:49;;;;;;;4.20;2.08;;;;;;;14.13;53.83;98484.69;4937355;28;20046;-70
2023/10/13 07:32:24;;;;;;;9.85;2.42;;;;;;;13.63;54.46;98471.22;4937077;28;20480;-73
2023/10/13 07:34:49;;;;;;;4.38;2.28;;;;;;;13.26;54.55;98491.00;4937613;28;20050;-71
2023/10/13 07:37:16;;;;;;;5.85;2.13;;;;;;;13.11;55.52;98479.13;4937818;28;20042;-74
2023/10/13 07:39:42;;;;;;;3.33;1.92;;;;;;;13.07;56.06;98500.00;4904577;28;20074;-75
2023/10/13 07:42:15;;;;;;;4.95;2.15;;;;;;;14.10;54.06;98493.94;4937609;28;20047;-75
2023/10/13 07:44:45;;;;;;;7.63;2.85;;;;;;;14.94;52.22;98502.94;4937987;28;20047;-73
2023/10/13 07:47:11;;;;;;;4.35;1.90;;;;;;;15.81;49.29;98483.50;4938288;28;20065;-72
2023/10/13 07:49:39;;;;;;;8.20;2.03;;;;;;;16.04;46.97;98507.81;4939521;28;20046;-73
2023/10/13 07:57:32;;;;;;;3.72;2.10;;;;;;;22.19;37.08;98496.34;4937342;28;20058;-72
2023/10/13 08:00:10;;;;;;;3.80;2.13;;;;;;;24.80;32.08;98474.88;4920162;28;20047;-72
2023/10/13 08:02:51;;;;;;;3.42;2.08;;;;;;;26.20;27.84;98485.34;4936406;28;20049;-74
2023/10/13 08:08:04;;;;;;;6.75;2.40;;;;;;;28.36;25.34;98502.69;4880461;29;20048;-76
2023/10/13 08:10:35;;;;;;;3.97;2.42;;;;;;;29.32;24.77;98508.63;4897076;29;20059;-73
2023/10/13 08:13:01;;;;;;;5.45;1.95;;;;;;;30.37;23.26;98499.69;4896707;29;20450;-73
2023/10/13 08:15:32;;;;;;;5.03;3.28;;;;;;;31.09;22.18;98498.16;4880613;29;20059;-73
2023/10/13 08:18:03;;;;;;;3.33;2.85;;;;;;;30.77;21.58;98515.63;4896745;29;20071;-75
2023/10/13 08:20:30;;;;;;;6.03;3.13;;;;;;;31.01;21.69;98505.84;4884130;29;20063;-73
2023/10/13 08:23:13;;;;;;;4.40;2.70;;;;;;;31.01;21.35;98478.31;4896586;29;20051;-73
2023/10/13 08:26:21;;;;;;;5.38;3.00;;;;;;;30.58;21.49;98537.28;4880368;29;20055;-71
2023/10/13 08:31:22;;;;;;;5.75;3.90;;;;;;;31.67;20.44;98527.28;4880320;29;20051;-71
2023/10/13 08:33:48;;;;;;;2.58;2.38;;;;;;;31.35;20.10;98531.03;4896357;29;20507;-73
2023/10/13 08:36:29;;;;;;;5.70;2.92;;;;;;;31.79;19.88;98527.84;4879266;29;20059;-72
2023/10/13 08:38:55;;;;;;;3.38;2.90;;;;;;;31.10;19.71;98541.97;4896260;29;20094;-73
2023/10/13 08:43:53;;;;;;;3.20;2.55;;;;;;;32.43;19.43;98549.38;4880145;29;20395;-73
2023/10/13 08:46:28;;;;;;;5.00;2.78;;;;;;;32.31;19.18;98557.09;4931265;28;20054;-73
2023/10/13 08:54:45;;;;;;;6.10;3.92;;;;;;;29.13;21.13;98574.81;4877262;29;20048;-72
2023/10/13 08:59:55;;;;;;;3.63;2.58;;;;;;;25.17;24.62;98573.03;4858346;29;20048;-72
2023/10/13 09:02:59;;;;;;;5.53;2.60;;;;;;;25.21;24.90;98596.88;4843676;29;20146;-73
2023/10/13 09:05:41;;;;;;;6.32;3.88;;;;;;;24.75;25.52;98585.63;4843290;29;20076;-74
2023/10/13 09:07:55;;;;;;;3.15;2.10;;;;;;;23.78;26.10;98581.66;4858595;29;20104;-71
2023/10/13 09:10:32;;;;;;;5.20;2.83;;;;;;;22.91;27.44;98604.84;4874769;29;20550;-72
2023/10/13 09:13:01;;;;;;;4.78;3.03;;;;;;;22.28;27.98;98599.09;4876694;29;20060;-70
2023/10/13 09:15:59;;;;;;;3.15;2.45;;;;;;;22.65;27.64;98607.59;4876974;29;20426;-71
2023/10/13 09:18:42;;;;;;;4.00;1.98;;;;;;;22.69;27.15;98612.38;4876630;29;20075;-72
2023/10/13 09:24:10;;;;;;;3.33;1.88;;;;;;;23.48;27.56;98611.31;4858089;29;20064;-71
2023/10/13 09:26:36;;;;;;;4.87;2.00;;;;;;;23.68;26.92;98606.63;4843239;29;20056;-72
2023/10/13 09:29:03;;;;;;;5.40;1.92;;;;;;;23.12;27.25;98601.88;4886543;29;20059;-72
2023/10/13 09:31:32;;;;;;;2.58;2.05;;;;;;;23.38;26.96;98610.94;4889978;29;20528;-71
2023/10/13 09:33:58;;;;;;;3.05;2.33;;;;;;;24.54;26.40;98601.38;4917280;29;20046;-71
2023/10/13 09:36:25;;;;;;;5.18;2.50;;;;;;;26.27;24.46;98615.34;4915953;28;20051;-72
2023/10/13 09:39:12;;;;;;;3.38;2.05;;;;;;;26.48;24.01;98646.75;4917026;29;20485;-72
2023/10/13 09:41:37;;;;;;;3.85;2.08;;;;;;;25.01;25.02;98628.19;4917000;29;20421;-72
2023/10/13 09:44:03;;;;;;;8.30;2.53;;;;;;;23.55;26.60;98644.78;4917215;29;20039;-71
2023/10/13 09:46:30;;;;;;;6.15;2.38;;;;;;;22.70;27.80;98635.81;4932095;28;20051;-71
2023/10/13 09:49:08;;;;;;;5.97;2.00;;;;;;;22.65;28.19;98653.78;4920066;29;20035;-72
2023/10/13 09:51:33;;;;;;;5.13;2.45;;;;;;;21.92;29.11;98653.72;4920135;29;20062;-70
2023/10/13 09:54:16;;;;;;;2.30;1.50;;;;;;;21.16;29.84;98665.75;4919084;28;20051;-72
2023/10/13 09:56:56;;;;;;;2.45;1.58;;;;;;;20.29;31.35;98671.59;4920950;28;20043;-71
2023/10/13 09:59:34;;;;;;;4.40;2.05;;;;;;;19.30;32.52;98702.09;4939021;28;20035;-71
2023/10/13 10:02:08;;;;;;;4.13;2.05;;;;;;;18.89;33.51;98667.47;4937852;28;20054;-71
2023/10/13 10:04:41;;;;;;;2.35;2.08;;;;;;;19.33;33.37;98677.38;4939213;28;20043;-72
2023/10/13 10:07:08;;;;;;;3.40;2.10;;;;;;;19.93;32.57;98691.44;4939278;28;20422;-71
2023/10/13 10:09:34;;;;;;;4.90;1.60;;;;;;;19.80;32.50;98680.47;4937725;28;20052;-73
2023/10/13 10:12:00;;;;;;;3.53;1.60;;;;;;;19.21;33.00;98688.69;4938643;28;20058;-76
2023/10/13 10:15:20;;;;;;;2.78;2.00;;;;;;;18.97;33.88;98693.53;4938447;28;20053;-76
2023/10/13 10:17:47;;;;;;;3.10;1.85;;;;;;;17.92;34.16;98690.75;4933135;28;20433;-76
2023/10/13 10:20:19;;;;;;;3.63;1.88;;;;;;;17.57;34.71;98696.69;4921440;28;20047;-74
2023/10/13 10:22:59;;;;;;;3.42;1.45;;;;;;;17.22;36.15;98698.03;4906350;28;20544;-74
2023/10/13 10:25:35;;;;;;;4.60;2.25;;;;;;;16.73;36.85;98718.88;4934262;28;20054;-74
2023/10/13 10:28:06;;;;;;;2.25;1.42;;;;;;;16.24;37.67;98719.72;4925111;28;20051;-73
2023/10/13 10:30:38;;;;;;;4.05;2.35;;;;;;;15.97;38.07;98711.97;4889078;29;20063;-75
2023/10/13 10:33:12;;;;;;;5.10;1.58;;;;;;;15.70;38.15;98736.44;4925160;28;20774;-73
2023/10/13 10:35:39;;;;;;;2.05;1.33;;;;;;;15.51;38.53;98738.38;4900499;28;20103;-73
2023/10/13 10:41:13;;;;;;;5.50;2.63;;;;;;;15.29;39.13;98738.97;4859245;29;20056;-72
2023/10/13 10:43:42;;;;;;;3.55;2.15;;;;;;;15.29;39.40;98730.06;4830882;29;20052;-74
2023/10/13 10:46:27;;;;;;;4.13;1.95;;;;;;;15.42;39.45;98727.78;4838021;29;20527;-73
2023/10/13 10:49:00;;;;;;;2.85;2.08;;;;;;;15.36;39.50;98755.25;4854706;29;20059;-73
2023/10/13 10:51:31;;;;;;;2.28;2.00;;;;;;;15.27;38.96;98735.59;4844805;29;20456;-72
2023/10/13 10:53:57;;;;;;;1.83;1.38;;;;;;;15.12;38.99;98734.53;4844406;29;20160;-72
2023/10/13 10:56:36;;;;;;;3.17;1.70;;;;;;;14.93;39.34;98748.16;4858346;29;20052;-74
2023/10/13 10:59:04;;;;;;;5.82;1.48;;;;;;;14.72;38.86;98752.06;4856931;29;20049;-73
2023/10/13 11:01:33;;;;;;;4.80;1.90;;;;;;;14.46;39.43;98761.91;4831886;29;20076;-76
2023/10/13 11:04:18;;;;;;;3.55;1.77;;;;;;;14.26;40.46;98760.38;4841156;29;20057;-73
2023/10/13 11:06:47;;;;;;;3.72;1.73;;;;;;;14.18;40.85;98775.41;4857188;29;20048;-72
2023/10/13 11:09:31;;;;;;;4.35;1.90;;;;;;;14.07;41.02;98793.56;4860193;29;20055;-72
2023/10/13 11:12:15;;;;;;;3.25;1.98;;;;;;;14.02;41.19;98779.75;4860003;29;20067;-72
2023/10/13 11:14:50;;;;;;;2.88;1.67;;;;;;;13.87;41.97;98798.22;4860325;29;20534;-77
2023/10/13 11:20:17;;;;;;;4.35;1.88;;;;;;;13.66;42.81;98797.63;4935404;28;20050;-70
2023/10/13 11:22:50;;;;;;;4.20;2.40;;;;;;;13.56;43.12;98805.72;4936511;28;20062;-73
2023/10/13 11:25:34;;;;;;;3.60;2.10;;;;;;;13.55;43.36;98812.06;4937829;28;20519;-72
2023/10/13 11:28:10;;;;;;;2.45;1.60;;;;;;;13.53;42.80;98810.53;4921238;28;20055;-76
2023/10/13 11:33:06;;;;;;;4.93;1.80;;;;;;;13.28;43.28;98818.25;4939722;28;20053;-78
2023/10/13 11:38:26;;;;;;;2.47;1.40;;;;;;;13.14;44.03;98818.72;4921929;28;20087;-74
2023/10/13 11:43:46;;;;;;;3.80;1.38;;;;;;;13.02;43.68;98822.53;4905582;28;20046;-76
2023/10/13 11:46:16;;;;;;;2.08;1.17;;;;;;;13.00;43.78;98824.50;4919703;28;20532;-71
2023/10/13 11:48:43;;;;;;;2.03;1.00;;;;;;;12.95;44.04;98794.66;4935488;28;20393;-75
2023/10/13 11:51:17;;;;;;;4.28;1.60;;;;;;;12.94;44.34;98827.75;4929896;28;20046;-73
2023/10/13 11:53:51;;;;;;;3.88;2.40;;;;;;;12.94;44.14;98835.78;4937653;28;20055;-76
2023/10/13 11:56:17;;;;;;;3.95;3.00;;;;;;;12.87;44.03;98840.84;4931673;28;20049;-74
2023/10/13 11:58:42;;;;;;;6.63;2.30;;;;;;;12.85;44.42;98825.94;4933293;28;20050;-72
2023/10/13 12:11:41;;;;;;;3.25;1.42;;;;;;;12.54;44.41;98838.63;4941911;28;20054;-75
2023/10/13 12:14:21;;;;;;;1.92;1.17;;;;;;;12.53;45.30;98843.13;4922388;28;20066;-75
2023/10/13 12:16:53;;;;;;;6.38;1.45;;;;;;;12.48;45.43;98840.06;4898620;28;20065;-73
2023/10/13 12:19:27;;;;;;;4.25;1.92;;;;;;;12.44;45.97;98854.69;4900353;29;20408;-71
2023/10/13 12:21:57;;;;;;;5.32;1.70;;;;;;;12.47;45.59;98840.19;4922625;28;20046;-72
2023/10/13 12:27:01;;;;;;;4.72;1.88;;;;;;;12.41;46.61;98838.94;4919758;28;20050;-71
2023/10/13 12:29:30;;;;;;;4.60;1.73;;;;;;;12.41;46.80;98832.75;4922685;28;20047;-72
2023/10/13 12:32:09;;;;;;;6.50;1.55;;;;;;;12.38;46.64;98849.06;4914469;28;20054;-72
2023/10/13 12:49:04;;;;;;;7.60;2.57;;;;;;;12.17;47.20;98846.53;4943254;28;20038;-70
2023/10/13 12:53:49;;;;;;;4.95;1.67;;;;;;;12.10;47.96;98864.91;4945912;28;20046;-70
2023/10/13 12:56:15;;;;;;;5.55;1.90;;;;;;;12.12;47.75;98864.78;4945540;28;20051;-70
2023/10/13 12:58:41;;;;;;;2.83;1.85;;;;;;;12.07;48.17;98862.53;4954722;28;20070;-69
2023/10/13 13:01:06;;;;;;;4.10;1.95;;;;;;;12.04;47.52;98873.50;4941515;28;20047;-70
2023/10/13 13:03:32;;;;;;;5.28;1.98;;;;;;;12.04;47.70;98869.97;4942473;28;20063;-70
2023/10/13 13:05:58;;;;;;;5.30;1.85;;;;;;;11.99;48.50;98871.22;4927480;29;20051;-70
2023/10/13 13:08:23;;;;;;;4.45;1.60;;;;;;;11.94;48.27;98873.47;4926925;29;20494;-69
2023/10/13 13:10:49;;;;;;;6.03;1.80;;;;;;;11.94;47.90;98857.47;4924345;29;20055;-71
2023/10/13 13:13:16;;;;;;;5.25;2.30;;;;;;;11.90;47.76;98877.41;4930023;29;20051;-70
2023/10/13 13:15:42;;;;;;;3.25;1.42;;;;;;;11.88;47.45;98873.16;4917890;29;20062;-71
2023/10/13 13:18:11;;;;;;;4.43;1.67;;;;;;;11.86;47.96;98883.97;4936342;29;20057;-70
2023/10/13 13:20:39;;;;;;;2.25;1.35;;;;;;;11.83;48.11;98892.28;4942722;28;20385;-70
2023/10/13 13:23:04;;;;;;;2.70;1.92;;;;;;;11.80;47.98;98892.56;4946850;28;20054;-69
2023/10/13 13:25:30;;;;;;;4.57;2.42;;;;;;;11.77;47.65;98919.50;4962965;28;20054;-68
2023/10/13 13:27:57;;;;;;;5.32;3.20;;;;;;;11.74;48.22;98882.34;4943455;28;20049;-70
2023/10/13 13:30:30;;;;;;;3.20;2.03;;;;;;;11.74;48.20;98898.38;4943089;28;20422;-71
2023/10/13 13:32:55;;;;;;;5.80;2.00;;;;;;;11.68;48.06;98890.06;4942591;28;20062;-72
2023/10/13 13:35:20;;;;;;;3.85;1.90;;;;;;;11.66;48.37;98879.53;4924081;28;20058;-70
2023/10/13 13:37:46;;;;;;;9.07;2.47;;;;;;;11.62;48.13;98894.97;4940299;28;20049;-71
2023/10/13 13:40:15;;;;;;;3.33;2.60;;;;;;;11.60;48.24;98896.09;4932536;28;20043;-71
2023/10/13 13:42:44;;;;;;;3.63;1.73;;;;;;;11.60;48.35;98902.28;4903688;29;20055;-71
2023/10/13 13:45:21;;;;;;;2.72;1.63;;;;;;;11.59;48.18;98910.44;4928042;29;20047;-79
2023/10/13 13:47:56;;;;;;;5.05;2.05;;;;;;;11.54;48.48;98928.66;4926316;29;20042;-79
2023/10/13 13:50:26;;;;;;;6.20;2.95;;;;;;;11.48;48.57;98935.38;4927923;28;20039;-77
2023/10/13 13:52:56;;;;;;;7.03;1.75;;;;;;;11.45;49.35;98918.78;4927561;29;20524;-79
2023/10/13 13:55:28;;;;;;;6.32;2.40;;;;;;;11.39;49.62;98924.66;4916239;29;20051;-78
2023/10/13 13:57:57;;;;;;;3.45;2.10;;;;;;;11.34;49.97;98921.53;4932315;29;20050;-79
2023/10/13 14:00:36;;;;;;;3.05;1.85;;;;;;;11.30;49.71;98931.59;4926845;29;20035;-78
2023/10/13 14:03:04;;;;;;;2.63;1.85;;;;;;;11.26;49.92;98931.06;4915356;29;20055;-78
2023/10/13 14:05:29;;;;;;;6.18;2.47;;;;;;;11.18;50.37;98928.16;4935009;29;20055;-77
2023/10/13 14:07:55;;;;;;;4.70;2.17;;;;;;;11.17;50.50;98958.50;4916891;28;20047;-77
2023/10/13 14:10:32;;;;;;;5.13;2.47;;;;;;;11.14;50.48;98942.75;4930036;28;20051;-78
2023/10/13 14:13:47;;;;;;;4.55;2.78;;;;;;;11.10;51.20;98946.66;4945378;28;20069;-78
2023/10/13 14:15:46;;;;;;;7.90;3.75;;;;;;;11.03;51.28;98955.31;4945987;28;20054;-77
2023/10/13 14:18:17;;;;;;;10.30;4.93;;;;;;;10.95;51.45;98958.59;4945187;28;20080;-78
2023/10/13 14:20:42;;;;;;;11.65;5.13;;;;;;;10.93;51.97;98954.41;4945218;28;20055;-78
2023/10/13 14:23:11;;;;;;;12.73;5.90;;;;;;;10.84;52.71;98969.31;4930839;28;20045;-77
2023/10/13 14:25:38;;;;;;;16.35;6.53;;;;;;;10.82;52.46;98971.28;4921597;29;20055;-70
2023/10/13 14:28:07;;;;;;;15.13;5.90;;;;;;;10.79;52.98;98979.53;4902695;29;20767;-70
2023/10/13 14:30:33;;;;;;;13.05;5.28;;;;;;;10.74;53.21;98985.25;4919452;29;20063;-72
2023/10/13 14:32:58;;;;;;;11.45;5.10;;;;;;;10.70;53.56;98985.63;4932748;28;20057;-70
2023/10/13 14:35:25;;;;;;;10.55;4.63;;;;;;;10.62;53.99;99004.91;4939220;28;20055;-70
2023/10/13 14:37:51;;;;;;;9.73;3.95;;;;;;;10.58;54.38;99007.97;4937318;28;20408;-71
2023/10/13 14:40:21;;;;;;;7.38;3.72;;;;;;;10.55;54.33;98998.41;4937236;28;20050;-70
2023/10/13 14:42:46;;;;;;;7.35;4.30;;;;;;;10.51;54.17;99008.44;4920941;28;20046;-69
2023/10/13 14:45:16;;;;;;;10.00;3.92;;;;;;;10.47;54.34;99007.03;4938464;28;20046;-70
2023/10/13 14:47:43;;;;;;;9.38;5.22;;;;;;;10.40;54.79;99010.28;4936841;28;20054;-70
2023/10/13 14:50:20;;;;;;;8.63;3.72;;;;;;;10.34;55.24;99026.78;4920602;28;20051;-70
2023/10/13 14:52:50;;;;;;;9.30;4.20;;;;;;;10.30;55.21;99015.50;4938531;28;20050;-70
2023/10/13 14:55:19;;;;;;;12.05;4.95;;;;;;;10.22;55.51;99022.44;4938102;28;20047;-72
2023/10/13 14:57:47;;;;;;;14.18;4.65;;;;;;;10.16;55.63;99018.41;4938572;28;20054;-77
2023/10/13 15:00:14;;;;;;;10.55;4.63;;;;;;;10.11;55.86;99020.59;4939683;28;20051;-77
2023/10/13 15:02:42;;;;;;;13.13;5.75;;;;;;;10.10;55.94;99045.53;4939626;28;20043;-77
2023/10/13 15:05:08;;;;;;;10.02;4.00;;;;;;;10.04;56.03;99046.03;4935466;28;20505;-74
2023/10/13 15:07:33;;;;;;;7.38;3.72;;;;;;;10.03;55.89;99028.34;4938350;28;20045;-75
2023/10/13 15:09:58;;;;;;;9.82;3.97;;;;;;;9.99;56.30;99027.75;4937544;28;20043;-74
2023/10/13 15:12:25;;;;;;;10.43;4.25;;;;;;;9.95;56.79;99031.59;4938567;28;20051;-75
2023/10/13 15:14:53;;;;;;;9.90;4.15;;;;;;;9.88;56.65;99040.19;4939030;28;20046;-76
2023/10/13 15:17:18;;;;;;;8.68;3.17;;;;;;;9.83;57.49;99037.88;4933933;28;20067;-74
2023/10/13 15:19:43;;;;;;;5.70;3.10;;;;;;;9.80;56.97;99038.16;4939327;28;20761;-71
2023/10/13 15:22:25;;;;;;;8.48;3.28;;;;;;;9.75;57.02;99035.81;4921075;28;20063;-70